Time;durP1;ratioP1;P1;durP2;ratioP2;P2;SDS_P1;SDS_P2;PMS_P1;PMS_P2;Temp;Humidity;BMP_temperature;BMP_pressure;BME280_temperature;BME280_humidity;BME280_pressure;Samples;Min_cycle;Max_cycle;Signal;HPM_P1;HPM_P2
2023/11/23 00:01:04;;;;;;;13.15;5.72;;;;;;;2.43;72.45;99530.81;5051270;28;20037;-76
2023/11/23 00:03:29;;;;;;;7.57;5.75;;;;;;;2.65;72.80;99508.03;5049577;28;20029;-77
2023/11/23 00:05:55;;;;;;;8.35;5.55;;;;;;;2.42;73.11;99502.84;5050734;28;20128;-76
2023/11/23 00:08:20;;;;;;;9.00;5.78;;;;;;;2.24;73.00;99508.47;5048061;28;20056;-77
2023/11/23 00:10:46;;;;;;;10.85;7.00;;;;;;;2.17;73.54;99496.16;5046027;28;20037;-77
2023/11/23 00:13:11;;;;;;;9.10;5.22;;;;;;;2.57;72.75;99495.78;5050935;28;20025;-76
2023/11/23 00:15:36;;;;;;;9.45;5.60;;;;;;;2.69;72.68;99504.84;5050937;28;20426;-77
2023/11/23 00:18:02;;;;;;;8.25;5.40;;;;;;;2.70;72.99;99498.59;5050791;28;20028;-77
2023/11/23 00:20:27;;;;;;;7.80;5.22;;;;;;;2.64;72.33;99485.31;5049770;28;20033;-76
2023/11/23 00:22:53;;;;;;;10.63;5.32;;;;;;;2.45;72.78;99481.41;5030823;28;20021;-75
2023/11/23 00:25:18;;;;;;;9.48;5.53;;;;;;;2.63;72.66;99489.78;5049764;28;20033;-74
2023/11/23 00:27:43;;;;;;;7.85;5.20;;;;;;;2.75;72.27;99479.59;5048641;28;20025;-75
2023/11/23 00:30:09;;;;;;;8.75;5.53;;;;;;;2.59;71.87;99474.50;5047165;28;20029;-75
2023/11/23 00:32:35;;;;;;;15.10;6.63;;;;;;;2.80;72.18;99472.75;5048502;28;20412;-75
2023/11/23 00:35:00;;;;;;;8.93;5.57;;;;;;;2.95;71.75;99470.09;5049663;28;20021;-76
2023/11/23 00:37:26;;;;;;;8.75;5.75;;;;;;;2.74;72.29;99470.88;5063253;28;20409;-75
2023/11/23 00:39:52;;;;;;;10.90;5.68;;;;;;;2.89;71.73;99447.94;5049857;28;20473;-76
2023/11/23 00:42:17;;;;;;;6.78;5.07;;;;;;;2.72;72.18;99451.78;5043308;28;21675;-75
2023/11/23 00:44:42;;;;;;;10.57;5.55;;;;;;;2.55;72.92;99455.63;5048738;28;20041;-75
2023/11/23 00:47:08;;;;;;;6.72;5.25;;;;;;;2.60;73.67;99450.59;5047867;28;20112;-75
2023/11/23 00:49:36;;;;;;;7.70;5.03;;;;;;;2.85;72.87;99453.75;5044547;28;20147;-75
2023/11/23 00:52:01;;;;;;;12.18;6.00;;;;;;;2.72;72.02;99441.25;5047373;28;20036;-78
2023/11/23 00:54:37;;;;;;;10.60;5.30;;;;;;;2.92;72.55;99439.69;5050827;28;20082;-77
2023/11/23 00:57:04;;;;;;;9.90;5.38;;;;;;;2.73;72.68;99434.16;5044972;28;20084;-75
2023/11/23 00:59:29;;;;;;;12.05;5.63;;;;;;;2.87;71.97;99434.13;5049972;28;20068;-77
2023/11/23 01:01:54;;;;;;;9.65;5.68;;;;;;;2.57;71.81;99440.44;5049295;28;20060;-77
2023/11/23 01:04:21;;;;;;;6.97;5.15;;;;;;;2.76;72.08;99431.97;5048514;28;20033;-77
2023/11/23 01:06:46;;;;;;;9.70;4.68;;;;;;;2.89;72.62;99436.56;5047304;28;20032;-76
2023/11/23 01:09:13;;;;;;;12.15;5.75;;;;;;;2.91;72.17;99437.19;5046826;28;20025;-77
2023/11/23 01:11:38;;;;;;;8.32;4.78;;;;;;;2.95;71.65;99439.28;5049216;28;20033;-77
2023/11/23 01:14:04;;;;;;;7.40;5.15;;;;;;;2.79;72.63;99434.25;5048795;28;20037;-77
2023/11/23 01:16:29;;;;;;;6.63;4.70;;;;;;;2.91;72.11;99437.19;5064044;28;20124;-75
2023/11/23 01:18:54;;;;;;;8.98;5.30;;;;;;;2.78;72.47;99429.97;5049558;28;20470;-75
2023/11/23 01:21:20;;;;;;;6.78;4.80;;;;;;;2.96;72.26;99429.56;5047627;28;20094;-75
2023/11/23 01:23:45;;;;;;;8.07;4.85;;;;;;;2.92;72.13;99428.31;5048032;28;20163;-76
2023/11/23 01:26:12;;;;;;;7.85;5.30;;;;;;;2.90;72.30;99430.31;5046209;28;20025;-76
2023/11/23 01:28:38;;;;;;;7.32;5.10;;;;;;;2.96;71.92;99426.94;5048849;28;20033;-75
2023/11/23 01:31:04;;;;;;;7.53;4.93;;;;;;;2.91;71.80;99421.38;5046729;28;20397;-78
2023/11/23 01:33:29;;;;;;;11.00;6.22;;;;;;;3.00;72.04;99433.47;5066571;28;20028;-78
2023/11/23 01:35:54;;;;;;;7.18;5.57;;;;;;;3.12;71.63;99425.91;5044808;28;20033;-78
2023/11/23 01:38:20;;;;;;;10.20;5.05;;;;;;;3.14;72.02;99423.88;5033435;28;20029;-78
2023/11/23 01:40:46;;;;;;;7.30;4.93;;;;;;;3.10;71.73;99409.44;5047699;28;20044;-78
2023/11/23 01:43:11;;;;;;;10.98;5.45;;;;;;;3.02;72.31;99410.34;5024661;28;20040;-77
2023/11/23 01:45:37;;;;;;;9.82;5.70;;;;;;;2.79;72.90;99407.88;5045437;28;20045;-78
2023/11/23 01:48:03;;;;;;;10.57;6.07;;;;;;;2.94;72.47;99416.56;5045789;28;20425;-77
2023/11/23 01:50:30;;;;;;;8.95;5.65;;;;;;;3.04;72.42;99397.81;5045614;28;20351;-77
2023/11/23 01:52:56;;;;;;;7.72;5.30;;;;;;;3.06;73.03;99416.88;5042679;28;20044;-78
2023/11/23 01:55:22;;;;;;;8.80;5.47;;;;;;;3.09;72.37;99405.16;5050740;28;20053;-78
2023/11/23 01:57:52;;;;;;;13.02;5.75;;;;;;;3.08;72.60;99404.34;5052323;28;20111;-78
2023/11/23 02:00:17;;;;;;;8.55;6.18;;;;;;;3.00;73.09;99402.66;5051283;28;20481;-77
2023/11/23 02:02:43;;;;;;;8.27;5.78;;;;;;;3.06;72.50;99390.53;5050305;28;20048;-77
2023/11/23 02:05:09;;;;;;;9.52;5.68;;;;;;;3.06;73.21;99387.88;5046926;28;20028;-77
2023/11/23 02:07:35;;;;;;;9.80;5.90;;;;;;;2.96;73.09;99380.28;5033894;28;20041;-78
2023/11/23 02:10:01;;;;;;;9.70;6.18;;;;;;;3.06;73.19;99385.25;5070394;28;20052;-78
2023/11/23 02:12:28;;;;;;;9.57;5.43;;;;;;;2.96;73.20;99377.66;5054391;28;20370;-78
2023/11/23 02:14:54;;;;;;;7.90;5.88;;;;;;;3.06;73.22;99376.53;5052479;28;20108;-75
2023/11/23 02:17:20;;;;;;;10.00;5.90;;;;;;;3.03;73.57;99381.19;5050711;28;20112;-76
2023/11/23 02:19:47;;;;;;;9.20;6.13;;;;;;;3.07;73.53;99378.97;5050111;28;20034;-76
2023/11/23 02:22:13;;;;;;;10.43;5.90;;;;;;;3.01;73.31;99379.75;5047735;28;20025;-76
2023/11/23 02:24:39;;;;;;;7.18;5.68;;;;;;;3.04;73.41;99372.25;5049476;28;20029;-76
2023/11/23 02:27:06;;;;;;;9.60;6.70;;;;;;;2.99;74.12;99366.72;5049504;28;20078;-76
2023/11/23 02:29:32;;;;;;;12.85;5.82;;;;;;;3.03;74.10;99369.81;5048202;28;20079;-76
2023/11/23 02:31:58;;;;;;;11.05;5.32;;;;;;;3.18;73.63;99360.03;5048855;28;20029;-76
2023/11/23 02:34:24;;;;;;;10.25;6.53;;;;;;;3.17;73.64;99354.94;5052109;28;20179;-77
2023/11/23 02:36:49;;;;;;;14.07;6.70;;;;;;;3.29;73.52;99362.16;5052214;28;20068;-76
2023/11/23 02:39:14;;;;;;;9.82;6.65;;;;;;;3.17;73.42;99355.75;5051115;28;20400;-77
2023/11/23 02:41:40;;;;;;;10.82;6.80;;;;;;;3.20;74.30;99350.09;5050486;28;20666;-77
2023/11/23 02:44:05;;;;;;;11.13;6.63;;;;;;;3.24;73.88;99359.25;5048968;28;20041;-77
2023/11/23 02:46:31;;;;;;;13.73;6.85;;;;;;;3.10;73.90;99354.88;5051892;28;20036;-76
2023/11/23 02:48:57;;;;;;;9.88;6.53;;;;;;;3.16;73.89;99351.50;5074870;22;20063;-77
2023/11/23 02:51:22;;;;;;;13.70;6.97;;;;;;;3.17;74.29;99361.00;5065961;28;20063;-77
2023/11/23 02:53:48;;;;;;;9.52;6.32;;;;;;;3.19;74.23;99347.66;5065792;28;20131;-77
2023/11/23 02:56:15;;;;;;;13.82;6.30;;;;;;;3.08;74.60;99335.78;5065169;28;20063;-77
2023/11/23 02:58:41;;;;;;;12.52;6.97;;;;;;;3.06;74.58;99342.25;5048755;28;20088;-76
2023/11/23 03:01:07;;;;;;;13.25;6.75;;;;;;;2.91;74.96;99351.03;5054678;28;20112;-76
2023/11/23 03:03:32;;;;;;;9.13;6.68;;;;;;;3.03;74.59;99344.28;5059098;28;20120;-76
2023/11/23 03:05:59;;;;;;;9.98;6.63;;;;;;;2.96;75.00;99348.66;5033653;28;20033;-76
2023/11/23 03:08:25;;;;;;;11.90;6.82;;;;;;;3.10;74.47;99343.50;5033796;28;20029;-76
2023/11/23 03:10:50;;;;;;;11.05;6.43;;;;;;;3.12;74.29;99347.59;5034667;28;20374;-76
2023/11/23 03:13:16;;;;;;;10.70;6.28;;;;;;;3.12;74.29;99346.78;5050289;28;20036;-76
2023/11/23 03:15:41;;;;;;;9.40;5.82;;;;;;;3.16;74.39;99329.56;5059258;28;20032;-78
2023/11/23 03:18:07;;;;;;;10.27;6.97;;;;;;;2.82;74.56;99296.78;5055846;28;20535;-78
2023/11/23 03:20:32;;;;;;;12.20;7.53;;;;;;;3.04;75.03;99330.06;5051090;28;20029;-78
2023/11/23 03:22:58;;;;;;;11.63;6.57;;;;;;;3.19;74.01;99334.47;5053166;28;20040;-78
2023/11/23 03:25:24;;;;;;;14.70;7.63;;;;;;;3.03;74.78;99319.72;5041987;28;20091;-78
2023/11/23 03:27:50;;;;;;;13.45;8.38;;;;;;;3.00;74.90;99323.53;5035089;28;20032;-78
2023/11/23 03:30:16;;;;;;;12.52;7.03;;;;;;;3.03;74.63;99317.91;5052410;28;20381;-78
2023/11/23 03:32:41;;;;;;;15.30;8.07;;;;;;;3.03;74.92;99323.19;5041620;28;20117;-78
2023/11/23 03:35:07;;;;;;;12.48;8.23;;;;;;;2.88;75.96;99338.22;5055743;28;20056;-78
2023/11/23 03:37:32;;;;;;;16.42;7.95;;;;;;;2.87;76.46;99333.97;5054486;28;20074;-79
2023/11/23 03:39:57;;;;;;;14.68;8.35;;;;;;;2.84;76.61;99328.25;5057968;28;20025;-76
2023/11/23 03:42:23;;;;;;;13.52;8.45;;;;;;;2.97;76.02;99325.75;5058836;28;20158;-76
2023/11/23 03:44:48;;;;;;;13.60;8.40;;;;;;;3.02;76.33;99332.09;5053119;28;20025;-77
2023/11/23 03:47:13;;;;;;;13.82;8.20;;;;;;;2.98;76.57;99328.19;5049777;28;20111;-76
2023/11/23 03:49:39;;;;;;;10.07;6.55;;;;;;;2.96;76.40;99324.09;5047982;28;20114;-76
2023/11/23 03:52:04;;;;;;;16.10;9.02;;;;;;;3.04;76.56;99335.34;5033966;28;20083;-76
2023/11/23 03:54:30;;;;;;;11.85;8.00;;;;;;;3.00;76.59;99328.81;5048149;28;20043;-77
2023/11/23 03:56:55;;;;;;;15.30;7.40;;;;;;;3.10;76.27;99335.59;5049498;28;20029;-76
2023/11/23 03:59:21;;;;;;;14.45;8.85;;;;;;;2.99;76.36;99310.56;5052610;28;20035;-76
2023/11/23 04:01:47;;;;;;;12.95;9.60;;;;;;;3.07;76.94;99333.34;5021014;28;20037;-76
2023/11/23 04:04:13;;;;;;;15.85;8.55;;;;;;;2.84;76.76;99301.91;5050419;28;20040;-76
2023/11/23 04:06:39;;;;;;;14.10;8.85;;;;;;;2.99;77.04;99315.84;5048784;28;20028;-76
2023/11/23 04:09:05;;;;;;;19.75;9.05;;;;;;;3.00;77.06;99314.81;5049950;28;20037;-76
2023/11/23 04:11:30;;;;;;;13.07;7.63;;;;;;;3.03;77.11;99323.19;5049188;28;20029;-76
2023/11/23 04:13:56;;;;;;;11.45;7.68;;;;;;;3.10;77.18;99314.50;5050673;28;20037;-77
2023/11/23 04:16:21;;;;;;;11.27;7.72;;;;;;;3.05;77.06;99307.16;5050341;28;20021;-77
2023/11/23 04:18:47;;;;;;;15.50;9.13;;;;;;;2.87;77.11;99275.97;5047750;28;20036;-77
2023/11/23 04:21:13;;;;;;;13.50;7.72;;;;;;;3.00;77.23;99280.53;5053015;28;20481;-80
2023/11/23 04:23:39;;;;;;;19.65;9.55;;;;;;;2.68;77.67;99291.59;5051863;28;20083;-79
2023/11/23 04:26:05;;;;;;;14.60;9.50;;;;;;;2.80;77.96;99295.34;5050794;28;20111;-77
2023/11/23 04:28:30;;;;;;;13.68;8.30;;;;;;;2.95;77.46;99278.47;5051436;28;20102;-79
2023/11/23 04:30:56;;;;;;;13.48;8.68;;;;;;;2.84;78.22;99273.69;5053212;28;20100;-79
2023/11/23 04:33:22;;;;;;;15.27;9.30;;;;;;;2.99;78.16;99261.25;5052855;28;20373;-79
2023/11/23 04:35:48;;;;;;;15.05;8.57;;;;;;;3.08;77.70;99269.06;5054086;28;20541;-80
2023/11/23 04:38:14;;;;;;;12.57;8.95;;;;;;;2.88;77.23;99231.97;5057681;28;20134;-79
2023/11/23 04:40:39;;;;;;;15.30;9.50;;;;;;;2.84;77.83;99239.44;5051501;28;20128;-78
2023/11/23 04:43:05;;;;;;;11.88;7.68;;;;;;;2.89;77.60;99218.59;5053124;28;20330;-78
2023/11/23 04:45:31;;;;;;;13.50;8.77;;;;;;;2.87;77.53;99232.97;5061239;28;20564;-76
2023/11/23 04:47:56;;;;;;;12.75;8.07;;;;;;;3.09;77.68;99241.66;5048239;28;20024;-76
2023/11/23 04:50:22;;;;;;;10.73;8.05;;;;;;;2.97;77.76;99228.22;5048914;28;20036;-77
2023/11/23 04:52:47;;;;;;;14.15;8.35;;;;;;;3.19;77.63;99239.53;5053372;28;20025;-77
2023/11/23 04:55:12;;;;;;;13.20;8.63;;;;;;;3.11;77.41;99229.09;5049541;28;20036;-79
2023/11/23 04:57:38;;;;;;;13.00;8.68;;;;;;;2.72;77.69;99180.34;5050409;28;20380;-77
2023/11/23 05:00:05;;;;;;;13.50;8.45;;;;;;;3.24;77.36;99230.03;5046651;28;20048;-77
2023/11/23 05:02:31;;;;;;;12.63;8.73;;;;;;;2.83;78.19;99218.53;5059371;28;20575;-78
2023/11/23 05:04:56;;;;;;;14.60;8.30;;;;;;;3.09;78.38;99220.56;5039823;28;20025;-78
2023/11/23 05:07:24;;;;;;;12.40;8.00;;;;;;;3.20;77.82;99218.22;5031167;28;20373;-78
2023/11/23 05:09:49;;;;;;;15.55;9.07;;;;;;;2.55;79.79;99229.03;5049998;28;20033;-78
2023/11/23 05:12:14;;;;;;;14.35;9.30;;;;;;;2.87;78.47;99210.06;5032764;28;20102;-78
2023/11/23 05:14:40;;;;;;;12.80;8.63;;;;;;;2.85;78.65;99225.25;5039856;28;20040;-79
2023/11/23 05:17:06;;;;;;;14.45;8.45;;;;;;;2.64;79.72;99214.75;5058605;28;20033;-78
2023/11/23 05:19:31;;;;;;;14.38;7.72;;;;;;;3.08;79.43;99217.13;5057637;28;20096;-78
2023/11/23 05:21:57;;;;;;;14.00;8.23;;;;;;;3.04;78.92;99226.41;5040278;28;20041;-78
2023/11/23 05:24:24;;;;;;;16.17;8.43;;;;;;;3.00;78.59;99207.53;5054898;28;20033;-79
2023/11/23 05:26:49;;;;;;;13.13;8.65;;;;;;;3.16;78.59;99206.44;5044151;28;20029;-79
2023/11/23 05:29:15;;;;;;;15.93;10.05;;;;;;;2.98;79.02;99217.47;5048825;28;20036;-78
2023/11/23 05:31:42;;;;;;;15.45;10.00;;;;;;;2.96;79.27;99210.75;5049257;28;20029;-78
2023/11/23 05:34:08;;;;;;;13.85;8.80;;;;;;;3.26;78.65;99229.81;5060867;28;20058;-79
2023/11/23 05:36:33;;;;;;;15.35;8.85;;;;;;;3.20;78.58;99217.41;5062741;28;20024;-78
2023/11/23 05:38:58;;;;;;;13.15;9.32;;;;;;;2.86;79.83;99221.59;5059451;28;20025;-78
2023/11/23 05:41:24;;;;;;;15.15;8.68;;;;;;;3.11;79.01;99211.47;5036757;28;20048;-79
2023/11/23 05:43:50;;;;;;;13.95;8.65;;;;;;;3.31;78.52;99222.97;5059845;28;20029;-78
2023/11/23 05:46:16;;;;;;;15.82;9.18;;;;;;;3.34;78.49;99235.78;5045293;28;20413;-78
2023/11/23 05:48:41;;;;;;;12.68;8.77;;;;;;;3.07;79.71;99235.78;5061867;28;20037;-78
2023/11/23 05:51:10;;;;;;;15.57;8.88;;;;;;;3.20;78.83;99217.41;5060117;28;20033;-78
2023/11/23 05:53:35;;;;;;;14.90;8.73;;;;;;;3.30;79.01;99241.66;5057306;28;20037;-78
2023/11/23 05:56:02;;;;;;;19.90;9.65;;;;;;;3.28;78.79;99231.28;5053676;28;20032;-77
2023/11/23 05:58:28;;;;;;;15.65;9.02;;;;;;;3.32;78.96;99245.69;5051973;28;20509;-77
2023/11/23 06:00:56;;;;;;;13.70;9.00;;;;;;;3.38;78.96;99226.50;5031017;28;20100;-77
2023/11/23 06:03:21;;;;;;;12.68;9.65;;;;;;;3.35;78.65;99226.03;5065921;28;20040;-78
2023/11/23 06:05:46;;;;;;;16.88;9.80;;;;;;;3.28;79.43;99233.91;5057165;28;20041;-78
2023/11/23 06:08:12;;;;;;;15.25;8.43;;;;;;;3.23;80.07;99219.69;5070203;28;20075;-78
2023/11/23 06:10:38;;;;;;;13.32;9.80;;;;;;;3.27;80.35;99220.91;5061847;28;20052;-78
2023/11/23 06:13:03;;;;;;;15.93;8.80;;;;;;;3.46;79.31;99222.88;5047897;28;20025;-78
2023/11/23 06:15:28;;;;;;;14.82;9.15;;;;;;;3.35;80.14;99208.41;5049419;28;20036;-77
2023/11/23 06:17:54;;;;;;;14.40;9.40;;;;;;;3.52;78.77;99217.63;5036904;28;20037;-78
2023/11/23 06:20:19;;;;;;;14.18;9.10;;;;;;;3.28;80.51;99209.34;5046031;28;20040;-78
2023/11/23 06:22:45;;;;;;;17.05;10.38;;;;;;;3.32;80.29;99207.97;5052768;28;20033;-78
2023/11/23 06:25:12;;;;;;;16.38;9.65;;;;;;;3.36;79.87;99181.03;5035349;28;20124;-78
2023/11/23 06:27:37;;;;;;;13.95;9.48;;;;;;;3.56;79.74;99196.97;5022363;28;20036;-77
2023/11/23 06:30:05;;;;;;;14.75;10.13;;;;;;;3.31;81.16;99196.59;5055420;28;20443;-78
2023/11/23 06:32:31;;;;;;;15.65;9.15;;;;;;;3.52;79.96;99201.78;5054875;28;20554;-78
2023/11/23 06:34:56;;;;;;;12.23;9.07;;;;;;;3.55;80.15;99209.34;5052166;28;20021;-77
2023/11/23 06:37:21;;;;;;;17.13;9.98;;;;;;;3.62;79.84;99204.91;5053194;28;20400;-78
2023/11/23 06:39:47;;;;;;;13.05;9.18;;;;;;;3.56;80.31;99189.03;5064775;28;20017;-79
2023/11/23 06:42:12;;;;;;;15.00;9.63;;;;;;;3.63;79.98;99189.88;5055537;28;20064;-77
2023/11/23 06:44:37;;;;;;;13.18;9.52;;;;;;;3.67;80.04;99183.19;5057767;28;20036;-78
2023/11/23 06:47:04;;;;;;;15.38;9.70;;;;;;;3.53;80.25;99187.59;5059445;28;20072;-77
2023/11/23 06:49:29;;;;;;;13.50;9.95;;;;;;;3.58;80.60;99181.75;5052208;28;20032;-77
2023/11/23 06:51:55;;;;;;;12.77;9.57;;;;;;;3.50;80.91;99172.16;5061002;28;20021;-77
2023/11/23 06:54:20;;;;;;;18.45;10.07;;;;;;;3.52;81.42;99172.75;5046647;28;20087;-77
2023/11/23 06:56:46;;;;;;;15.75;9.32;;;;;;;3.41;81.78;99175.13;5048774;28;20094;-77
2023/11/23 06:59:12;;;;;;;17.55;10.75;;;;;;;3.29;81.77;99156.41;5046340;28;20036;-78
2023/11/23 07:01:37;;;;;;;18.13;10.35;;;;;;;3.36;81.52;99174.91;5041924;28;20086;-78
2023/11/23 07:04:04;;;;;;;16.33;11.10;;;;;;;3.29;82.32;99184.59;5055704;28;20036;-77
2023/11/23 07:06:29;;;;;;;19.52;11.27;;;;;;;3.31;82.14;99164.94;5062619;28;20032;-77
2023/11/23 07:08:57;;;;;;;16.73;10.60;;;;;;;3.40;82.65;99176.97;5065671;28;20077;-78
2023/11/23 07:11:22;;;;;;;21.85;10.05;;;;;;;3.34;82.22;99156.63;5054407;28;20504;-77
2023/11/23 07:13:48;;;;;;;18.13;9.98;;;;;;;3.33;82.67;99165.56;5035972;28;20062;-77
2023/11/23 07:16:14;;;;;;;15.38;10.68;;;;;;;3.39;82.40;99169.25;5033660;28;20100;-77
2023/11/23 07:18:39;;;;;;;18.48;9.68;;;;;;;3.39;82.96;99163.97;5055849;28;20037;-77
2023/11/23 07:21:05;;;;;;;17.27;10.20;;;;;;;3.43;82.48;99166.03;5053712;28;20067;-77
2023/11/23 07:23:30;;;;;;;15.38;9.82;;;;;;;3.24;83.07;99153.53;5047235;28;20043;-77
2023/11/23 07:25:56;;;;;;;18.67;10.50;;;;;;;3.41;82.84;99170.69;5057781;28;20081;-77
2023/11/23 07:28:22;;;;;;;16.30;10.45;;;;;;;3.43;83.55;99157.31;5070023;28;20034;-77
2023/11/23 07:30:51;;;;;;;15.13;10.00;;;;;;;3.41;83.17;99157.50;5029007;28;20613;-77
2023/11/23 07:33:17;;;;;;;19.30;10.98;;;;;;;3.37;83.59;99144.88;5035334;28;20040;-77
2023/11/23 07:35:46;;;;;;;18.02;11.05;;;;;;;3.35;83.66;99153.00;5009004;28;20040;-76
2023/11/23 07:38:12;;;;;;;17.83;12.40;;;;;;;3.45;82.86;99153.44;5049651;28;20037;-76
2023/11/23 07:40:38;;;;;;;18.83;10.75;;;;;;;3.42;83.07;99145.13;5049756;28;20044;-76
2023/11/23 07:43:04;;;;;;;17.95;10.75;;;;;;;3.58;82.68;99160.63;5040255;28;20473;-76
2023/11/23 07:45:30;;;;;;;15.63;10.20;;;;;;;3.53;83.04;99160.41;5047504;28;20036;-76
2023/11/23 07:47:55;;;;;;;17.35;11.25;;;;;;;3.57;83.08;99159.00;5055543;28;20039;-77
2023/11/23 07:50:20;;;;;;;18.58;11.40;;;;;;;3.64;83.27;99151.91;5057921;28;20526;-77
2023/11/23 07:52:46;;;;;;;17.52;11.05;;;;;;;3.54;82.63;99143.53;5059461;28;20612;-76
2023/11/23 07:55:15;;;;;;;15.65;10.32;;;;;;;3.58;83.12;99160.63;5050564;28;20051;-77
2023/11/23 07:57:41;;;;;;;19.67;11.60;;;;;;;3.63;83.21;99155.56;5051017;28;20024;-77
2023/11/23 08:00:07;;;;;;;17.92;12.20;;;;;;;3.67;83.02;99146.22;5049990;28;20545;-77
2023/11/23 08:02:32;;;;;;;16.00;10.40;;;;;;;3.71;83.20;99148.28;5058953;28;20039;-76
2023/11/23 08:04:58;;;;;;;26.95;12.13;;;;;;;3.64;83.20;99130.81;5063545;28;20040;-76
2023/11/23 08:07:24;;;;;;;19.05;10.50;;;;;;;3.66;83.03;99149.91;5066642;28;20061;-76
2023/11/23 08:09:49;;;;;;;19.08;11.73;;;;;;;3.57;83.21;99141.34;5053941;28;20043;-76
2023/11/23 08:12:15;;;;;;;16.70;10.80;;;;;;;3.67;83.64;99143.59;5042521;28;20033;-77
2023/11/23 08:14:40;;;;;;;21.10;11.13;;;;;;;3.69;83.79;99141.59;5035319;28;20494;-77
2023/11/23 08:17:05;;;;;;;19.45;11.15;;;;;;;3.68;83.67;99147.88;5050784;28;20167;-77
2023/11/23 08:19:34;;;;;;;20.00;12.68;;;;;;;3.68;83.76;99137.31;5039837;28;20090;-76
2023/11/23 08:22:02;;;;;;;20.27;11.63;;;;;;;3.66;83.77;99128.78;5059227;28;20382;-76
2023/11/23 08:24:28;;;;;;;18.70;11.05;;;;;;;3.65;84.19;99122.69;5050603;28;20029;-77
2023/11/23 08:26:53;;;;;;;18.52;11.20;;;;;;;3.49;84.59;99109.03;5049918;28;20087;-76
2023/11/23 08:29:18;;;;;;;23.08;10.85;;;;;;;3.58;84.37;99115.78;5051140;28;20060;-76
2023/11/23 08:31:45;;;;;;;21.67;11.23;;;;;;;3.62;84.42;99115.19;5038945;28;20060;-76
2023/11/23 08:34:11;;;;;;;17.75;11.88;;;;;;;3.60;85.01;99125.09;5065227;28;20040;-77
2023/11/23 08:36:41;;;;;;;18.10;11.13;;;;;;;3.68;84.99;99116.19;5050713;28;20056;-76
2023/11/23 08:39:07;;;;;;;23.95;13.63;;;;;;;3.53;85.21;99113.72;5052743;28;20477;-77
2023/11/23 08:41:32;;;;;;;20.77;13.10;;;;;;;3.55;85.54;99093.22;5050511;28;20033;-77
2023/11/23 08:43:58;;;;;;;19.70;10.63;;;;;;;3.76;85.23;99097.53;5057305;28;20388;-77
2023/11/23 08:46:24;;;;;;;21.27;12.23;;;;;;;3.56;86.08;99086.13;5057479;28;20064;-76
2023/11/23 08:48:49;;;;;;;18.38;12.10;;;;;;;3.68;86.32;99087.16;5073009;22;20508;-77
2023/11/23 08:51:15;;;;;;;22.98;13.15;;;;;;;3.70;86.37;99091.25;5041180;28;20475;-75
2023/11/23 08:53:41;;;;;;;21.55;12.65;;;;;;;3.58;87.10;99092.03;5032920;28;20489;-75
2023/11/23 08:56:06;;;;;;;22.55;13.75;;;;;;;3.70;86.90;99098.34;5048183;28;20037;-74
2023/11/23 08:58:32;;;;;;;19.15;12.20;;;;;;;3.73;86.57;99098.75;5061877;28;20033;-75
2023/11/23 09:00:57;;;;;;;23.55;13.85;;;;;;;3.67;86.80;99089.00;5050446;28;20404;-75
2023/11/23 09:03:22;;;;;;;20.88;11.85;;;;;;;3.68;86.88;99097.72;5025035;28;20053;-75
2023/11/23 09:05:48;;;;;;;22.27;12.52;;;;;;;3.71;87.10;99089.44;5010703;28;20040;-75
2023/11/23 09:08:13;;;;;;;22.98;13.10;;;;;;;3.61;88.17;99088.97;5040134;28;20389;-75
2023/11/23 09:10:39;;;;;;;19.27;12.20;;;;;;;3.71;87.90;99089.44;5033678;28;20356;-75
2023/11/23 09:13:05;;;;;;;20.17;12.90;;;;;;;3.82;87.51;99091.50;5034899;28;20036;-75
2023/11/23 09:15:31;;;;;;;21.20;12.50;;;;;;;3.89;87.37;99097.56;5033299;28;20075;-75
2023/11/23 09:17:56;;;;;;;20.85;11.23;;;;;;;3.92;87.48;99094.56;5035891;28;20076;-75
2023/11/23 09:20:23;;;;;;;22.58;15.32;;;;;;;3.90;87.84;99082.56;5043526;28;20040;-75
2023/11/23 09:22:49;;;;;;;23.13;13.25;;;;;;;3.94;87.72;99083.78;5025970;28;20022;-75
2023/11/23 09:25:14;;;;;;;18.33;13.25;;;;;;;4.03;87.36;99077.31;5014533;28;20036;-75
2023/11/23 09:27:39;;;;;;;23.05;13.18;;;;;;;4.06;87.90;99077.72;5034637;28;20554;-75
2023/11/23 09:30:06;;;;;;;22.42;13.05;;;;;;;3.95;88.17;99066.94;5028120;28;20029;-75
2023/11/23 09:32:33;;;;;;;18.80;11.85;;;;;;;4.03;88.07;99080.75;5011320;28;20022;-75
2023/11/23 09:34:59;;;;;;;23.10;14.00;;;;;;;4.07;88.34;99068.78;5000389;28;20021;-75
2023/11/23 09:37:26;;;;;;;20.23;12.23;;;;;;;4.15;87.93;99076.50;5034166;28;20033;-75
2023/11/23 09:39:51;;;;;;;21.42;13.73;;;;;;;4.11;88.25;99066.53;5031188;28;20036;-75
2023/11/23 09:42:18;;;;;;;20.45;13.02;;;;;;;4.14;88.87;99051.13;5031201;28;20092;-75
2023/11/23 09:44:45;;;;;;;19.63;12.63;;;;;;;4.17;88.93;99048.06;5023276;28;20087;-75
2023/11/23 09:47:13;;;;;;;26.25;12.30;;;;;;;4.11;89.82;99048.88;5014395;28;20026;-75
2023/11/23 09:49:40;;;;;;;20.63;11.13;;;;;;;4.13;90.07;99038.13;5037188;28;20081;-75
2023/11/23 09:52:06;;;;;;;22.20;13.25;;;;;;;4.07;91.18;99029.16;5054085;28;20021;-75
2023/11/23 09:54:32;;;;;;;20.83;12.77;;;;;;;4.18;90.95;99017.19;5019479;28;20059;-75
2023/11/23 09:56:59;;;;;;;20.27;11.77;;;;;;;4.21;91.02;99000.94;5041071;28;20077;-75
2023/11/23 09:59:26;;;;;;;20.60;12.50;;;;;;;4.27;91.58;99002.75;5045378;28;20052;-75
2023/11/23 10:01:54;;;;;;;23.40;12.13;;;;;;;4.32;91.77;99010.88;5029897;28;20375;-75
2023/11/23 10:04:21;;;;;;;17.70;11.73;;;;;;;4.33;92.04;99008.03;5029543;28;20041;-75
2023/11/23 10:06:46;;;;;;;16.88;11.75;;;;;;;4.37;91.96;99001.31;5037146;28;20339;-75
2023/11/23 10:09:15;;;;;;;22.17;12.73;;;;;;;4.35;91.98;98984.84;5053203;28;20108;-75
2023/11/23 10:11:41;;;;;;;16.80;10.40;;;;;;;4.43;91.05;98984.63;5039059;28;20052;-75
2023/11/23 10:14:06;;;;;;;21.42;12.23;;;;;;;4.49;91.17;98986.47;5042538;28;20312;-76
2023/11/23 10:16:32;;;;;;;20.33;11.48;;;;;;;4.58;90.00;98995.00;5034165;28;20065;-75
2023/11/23 10:18:57;;;;;;;20.38;11.30;;;;;;;4.49;90.86;98991.75;5038967;28;20064;-75
2023/11/23 10:21:23;;;;;;;21.33;12.07;;;;;;;4.57;90.33;98988.88;5031122;28;20034;-75
2023/11/23 10:23:49;;;;;;;16.23;8.77;;;;;;;4.57;91.08;98982.78;5020202;28;20026;-75
2023/11/23 10:26:15;;;;;;;15.25;11.10;;;;;;;4.48;90.74;98974.25;5032079;28;20110;-75
2023/11/23 10:28:41;;;;;;;21.73;12.13;;;;;;;4.48;90.73;98961.06;5018915;28;20049;-75
2023/11/23 10:31:07;;;;;;;17.85;11.63;;;;;;;4.52;91.50;98974.69;5028451;28;20087;-75
2023/11/23 10:33:35;;;;;;;20.67;12.88;;;;;;;4.46;91.28;98951.69;5025088;28;20040;-76
2023/11/23 10:36:04;;;;;;;19.38;11.73;;;;;;;4.47;92.32;98940.13;5043101;28;20068;-76
2023/11/23 10:38:37;;;;;;;20.65;12.20;;;;;;;4.46;92.28;98931.38;5047224;28;20090;-75
2023/11/23 10:41:03;;;;;;;18.33;11.38;;;;;;;4.45;91.87;98944.81;5026052;28;20034;-75
2023/11/23 10:43:29;;;;;;;18.50;12.35;;;;;;;4.46;92.81;98941.94;5039448;28;20079;-75
2023/11/23 10:45:56;;;;;;;18.00;11.25;;;;;;;4.48;91.52;98936.44;5037602;28;20049;-75
2023/11/23 10:48:24;;;;;;;19.95;12.40;;;;;;;4.44;92.58;98938.69;5020183;28;20033;-75
2023/11/23 10:50:50;;;;;;;20.83;13.15;;;;;;;4.42;93.27;98919.59;5036567;28;20072;-75
2023/11/23 10:53:15;;;;;;;18.17;10.88;;;;;;;4.46;92.85;98912.88;5044377;28;20413;-75
2023/11/23 10:55:41;;;;;;;17.10;9.52;;;;;;;4.41;93.49;98915.31;5044423;28;20061;-75
2023/11/23 10:58:12;;;;;;;18.35;10.40;;;;;;;4.46;93.55;98893.56;5035748;28;21622;-75
2023/11/23 11:00:40;;;;;;;15.60;9.45;;;;;;;4.40;93.69;98882.00;5013499;28;20107;-75
2023/11/23 11:03:08;;;;;;;16.17;11.73;;;;;;;4.51;93.41;98897.22;5030767;28;20049;-75
2023/11/23 11:05:44;;;;;;;19.73;9.18;;;;;;;4.59;93.43;98904.09;5021847;28;20032;-75
2023/11/23 11:08:10;;;;;;;17.65;10.82;;;;;;;4.55;93.72;98893.13;5044459;28;20494;-75
2023/11/23 11:10:41;;;;;;;21.33;10.70;;;;;;;4.53;93.40;98891.72;5032445;28;20049;-75
2023/11/23 11:13:17;;;;;;;15.10;9.82;;;;;;;4.62;93.62;98887.84;5022151;28;20029;-75
2023/11/23 11:15:53;;;;;;;15.95;9.50;;;;;;;4.57;92.99;98888.47;5029278;28;20025;-74
2023/11/23 11:18:38;;;;;;;15.65;10.38;;;;;;;4.61;93.27;98865.03;5021479;28;20034;-75
2023/11/23 11:21:12;;;;;;;17.48;9.63;;;;;;;4.51;92.76;98854.94;5019613;28;20044;-75
2023/11/23 11:23:46;;;;;;;15.00;9.60;;;;;;;4.49;93.48;98851.69;5029649;28;20037;-75
2023/11/23 11:26:16;;;;;;;14.10;10.40;;;;;;;4.54;93.10;98846.56;5030988;28;20028;-75